Cynthiana, IN (47612)

6:22 AM CST on January 28, 2015 (GMT -0600)
APRSWXNET Wadesville IN US | Change Station
CLOSE
Current Station
Personal Weather Station
Location: Wadesville, IN
Elevation: 442 ft
Nearby Weather Stations

Elev 442 ft 38.11 °N, 87.79 °W | Updated 27 minutes ago

Clear
Clear
28 °F
Feels Like 28 °F
N
0
Wind Variable Wind from NE
Gusts 0.0 mph

Today
High -- | Low -- °F
--% Chance of Precip.
Yesterday
High -- | Low -- °F
Precip. -- in
6:58 AM 5:08 PM
Waxing Gibbous, 64% visible
Pressure 30.32 in
Visibility 9.0 miles
Clouds Clear
Windchill 28 °F
Dew Point 24 °F
Humidity 84%
Rainfall 0.00 in
Snow Depth Not available.
UV 0 out of 12
Pollen .10 out of 12
Air Quality Not available.
Flu Activity Not available.
METAR KEVV 281154Z 09008KT 9SM CLR M01/M05 A3031 RMK AO2 SLP268 T10111050 10011 21022 52003

More Conditions Fewer Conditions

Pressure 30.32 in
Visibility 9.0 miles
Clouds Clear
Windchill 28 °F
Dew Point 24 °F
Humidity 84%
Rainfall 0.00 in
Snow Depth Not available.
UV 0 out of 12
Pollen .10 out of 12
Air Quality Not available.
Flu Activity Not available.
METAR KEVV 281154Z 09008KT 9SM CLR M01/M05 A3031 RMK AO2 SLP268 T10111050 10011 21022 52003

More Conditions Fewer Conditions

10-Day Weather Forecast

Almanac

Astronomy

Jan. 28, 2015 Rise Set
Actual Time
Civil Twilight
Nautical Twilight
Astronomical Twilight
Moon
Length of Visible Light
Length of Day
Tomorrow will be .
, % of the Moon is Illuminated

Today's Extremes

State Highs State Lows

Community

WunderPhotos

Upload Photos

1,791,132 photos uploaded!

WunderBlogs® & News

Nearby

Air Quality

  Air Quality AQ Index Pollutant
Not available.

Snow Depth

Station Depth Elevation

Earthquake Activity

City Distance Mag. Time & Date
Minimum magnitude displayed is 2.5.

Coastal Water Temperatures

Place Temperature

Nearby Weather Stations